createdAt,value
2023-03-21T00:01:05.124Z,8.10
2023-03-21T00:03:36.801Z,8.00
2023-03-21T00:06:09.688Z,8.00
2023-03-21T00:08:41.130Z,8.00
2023-03-21T00:11:14.130Z,8.00
2023-03-21T00:13:44.555Z,8.10
2023-03-21T00:16:25.241Z,8.00
2023-03-21T00:19:03.297Z,8.10
2023-03-21T00:21:51.913Z,8.00
2023-03-21T00:24:29.066Z,7.90
2023-03-21T00:29:51.983Z,7.80
2023-03-21T00:32:23.697Z,7.80
2023-03-21T00:35:11.742Z,7.80
2023-03-21T00:37:45.123Z,7.90
2023-03-21T00:40:26.694Z,7.90
2023-03-21T00:43:01.438Z,7.90
2023-03-21T00:45:32.176Z,7.90
2023-03-21T00:48:05.650Z,7.90
2023-03-21T00:50:36.506Z,7.80
2023-03-21T00:53:07.429Z,7.90
2023-03-21T00:55:38.771Z,8.00
2023-03-21T00:58:11.406Z,8.00
2023-03-21T01:00:42.113Z,8.00
2023-03-21T01:03:24.566Z,8.00
2023-03-21T01:06:05.815Z,8.00
2023-03-21T01:08:54.093Z,8.00
2023-03-21T01:11:28.337Z,8.00
2023-03-21T01:14:18.791Z,8.00
2023-03-21T01:16:52.179Z,8.00
2023-03-21T01:19:40.972Z,8.00
2023-03-21T01:22:15.298Z,8.00
2023-03-21T01:24:55.131Z,8.00
2023-03-21T01:27:29.156Z,8.00
2023-03-21T01:30:02.495Z,8.00
2023-03-21T01:32:32.932Z,7.90
2023-03-21T01:35:04.114Z,7.90
2023-03-21T01:37:34.739Z,7.90
2023-03-21T01:40:12.812Z,7.90
2023-03-21T01:42:45.018Z,7.90
2023-03-21T01:46:11.919Z,7.90
2023-03-21T01:49:10.352Z,7.90
2023-03-21T01:51:47.471Z,7.90
2023-03-21T01:54:27.158Z,7.80
2023-03-21T01:57:01.823Z,7.80
2023-03-21T01:59:42.142Z,7.80
2023-03-21T02:02:18.197Z,7.80
2023-03-21T02:05:05.452Z,7.70
2023-03-21T02:07:37.946Z,7.70
2023-03-21T02:10:16.058Z,7.60
2023-03-21T02:12:51.379Z,7.60
2023-03-21T02:15:23.723Z,7.60
2023-03-21T02:18:18.408Z,7.60
2023-03-21T02:21:32.985Z,7.60
2023-03-21T02:25:01.340Z,7.60
2023-03-21T02:27:39.127Z,7.60
2023-03-21T02:31:09.567Z,7.60
2023-03-21T02:34:16.376Z,7.60
2023-03-21T02:37:36.644Z,7.60
2023-03-21T02:40:15.979Z,7.60
2023-03-21T02:43:01.343Z,7.60
2023-03-21T02:45:44.383Z,7.60
2023-03-21T02:48:31.091Z,7.60
2023-03-21T02:51:07.764Z,7.60
2023-03-21T02:53:45.189Z,7.60
2023-03-21T02:56:16.007Z,7.60
2023-03-21T02:58:52.172Z,7.60
2023-03-21T03:01:26.099Z,7.60
2023-03-21T03:03:59.208Z,7.60
2023-03-21T03:06:44.858Z,7.60
2023-03-21T03:09:32.594Z,7.60
2023-03-21T03:12:12.422Z,7.60
2023-03-21T03:15:03.010Z,7.50
2023-03-21T03:17:51.118Z,7.60
2023-03-21T03:20:34.378Z,7.50
2023-03-21T03:23:22.714Z,7.50
2023-03-21T03:26:02.183Z,7.50
2023-03-21T03:28:40.428Z,7.50
2023-03-21T03:31:26.184Z,7.40
2023-03-21T03:34:08.475Z,7.40
2023-03-21T03:36:47.849Z,7.40
2023-03-21T03:39:20.736Z,7.40
2023-03-21T03:42:21.776Z,7.40
2023-03-21T03:45:02.858Z,7.40
2023-03-21T03:47:54.197Z,7.40
2023-03-21T03:50:32.884Z,7.40
2023-03-21T03:53:18.083Z,7.30
2023-03-21T03:55:52.916Z,7.40
2023-03-21T03:58:39.746Z,7.30
2023-03-21T04:01:15.698Z,7.30
2023-03-21T04:03:54.562Z,7.40
2023-03-21T04:06:30.239Z,7.30
2023-03-21T04:09:03.466Z,7.30
2023-03-21T04:11:36.438Z,7.30
2023-03-21T04:14:08.582Z,7.40
2023-03-21T04:16:39.604Z,7.30
2023-03-21T04:19:10.506Z,7.40
2023-03-21T04:21:41.542Z,7.40
2023-03-21T04:24:14.031Z,7.40
2023-03-21T04:26:47.969Z,7.40
2023-03-21T04:29:43.639Z,7.40
2023-03-21T04:32:40.818Z,7.40
2023-03-21T04:35:16.219Z,7.40
2023-03-21T04:37:46.653Z,7.40
2023-03-21T04:40:19.278Z,7.40
2023-03-21T04:42:50.597Z,7.40
2023-03-21T04:45:22.751Z,7.40
2023-03-21T04:47:53.328Z,7.40
2023-03-21T04:50:24.211Z,7.30
2023-03-21T04:52:54.744Z,7.40
2023-03-21T04:55:26.773Z,7.40
2023-03-21T04:57:57.297Z,7.40
2023-03-21T05:00:29.594Z,7.40
2023-03-21T05:03:00.301Z,7.40
2023-03-21T05:05:31.822Z,7.40
2023-03-21T05:08:02.377Z,7.40
2023-03-21T05:10:33.138Z,7.40
2023-03-21T05:13:03.709Z,7.40
2023-03-21T05:15:38.721Z,7.40
2023-03-21T05:18:12.213Z,7.40
2023-03-21T05:21:00.299Z,7.40
2023-03-21T05:23:38.349Z,7.30
2023-03-21T05:26:11.589Z,7.40
2023-03-21T05:28:57.221Z,7.40
2023-03-21T05:31:30.452Z,7.40
2023-03-21T05:34:09.733Z,7.40
2023-03-21T05:36:41.634Z,7.40
2023-03-21T05:39:14.284Z,7.50
2023-03-21T05:41:50.647Z,7.50
2023-03-21T05:44:21.067Z,7.50
2023-03-21T05:46:53.307Z,7.60
2023-03-21T05:49:29.816Z,7.60
2023-03-21T05:52:04.238Z,7.60
2023-03-21T05:54:35.150Z,7.60
2023-03-21T05:57:06.895Z,7.60
2023-03-21T05:59:57.865Z,7.60
2023-03-21T06:02:30.188Z,7.70
2023-03-21T06:05:04.784Z,7.70
2023-03-21T06:07:37.230Z,7.70
2023-03-21T06:10:10.111Z,7.80
2023-03-21T06:12:43.227Z,7.80
2023-03-21T06:15:32.418Z,7.80
2023-03-21T06:18:14.400Z,7.80
2023-03-21T06:20:54.542Z,7.80
2023-03-21T06:23:25.353Z,7.90
2023-03-21T06:25:55.860Z,7.90
2023-03-21T06:28:29.126Z,8.00
2023-03-21T06:31:00.021Z,8.00
2023-03-21T06:33:33.692Z,8.00
2023-03-21T06:36:04.374Z,7.90
2023-03-21T06:38:38.102Z,7.90
2023-03-21T06:41:10.492Z,8.00
2023-03-21T06:43:46.341Z,8.00
2023-03-21T06:46:17.100Z,8.00
2023-03-21T06:48:49.805Z,8.10
2023-03-21T06:51:20.466Z,8.10
2023-03-21T06:54:05.764Z,8.00
2023-03-21T06:56:43.470Z,8.00
2023-03-21T06:59:16.512Z,8.10
2023-03-21T07:02:04.166Z,8.10
2023-03-21T07:04:41.034Z,8.20
2023-03-21T07:07:17.076Z,8.20
2023-03-21T07:09:48.021Z,8.20
2023-03-21T07:12:18.551Z,8.20
2023-03-21T07:15:09.188Z,8.30
2023-03-21T07:17:40.470Z,8.40
2023-03-21T07:20:14.362Z,8.40
2023-03-21T07:22:44.868Z,8.40
2023-03-21T07:25:17.586Z,8.40
2023-03-21T07:27:47.953Z,8.40
2023-03-21T07:30:19.644Z,8.40
2023-03-21T07:32:50.105Z,8.50
2023-03-21T07:35:22.802Z,8.60
2023-03-21T07:37:53.586Z,8.70
2023-03-21T07:40:24.216Z,8.60
2023-03-21T07:42:54.855Z,8.80
2023-03-21T07:45:33.978Z,8.90
2023-03-21T07:48:04.743Z,9.20
2023-03-21T07:50:39.776Z,9.10
2023-03-21T07:53:11.008Z,9.20
2023-03-21T07:55:41.758Z,9.40
2023-03-21T07:58:12.173Z,9.70
2023-03-21T08:00:43.053Z,10.00
2023-03-21T08:03:13.598Z,9.80
2023-03-21T08:05:47.004Z,9.40
2023-03-21T08:08:17.544Z,9.20
2023-03-21T08:10:48.941Z,9.30
2023-03-21T08:13:19.551Z,9.20
2023-03-21T08:15:50.426Z,9.00
2023-03-21T08:18:20.959Z,8.90
2023-03-21T08:20:55.837Z,8.80
2023-03-21T08:23:27.230Z,8.70
2023-03-21T08:25:58.849Z,8.60
2023-03-21T08:28:29.492Z,8.80
2023-03-21T08:31:00.325Z,8.70
2023-03-21T08:33:30.947Z,8.70
2023-03-21T08:36:03.957Z,8.60
2023-03-21T08:38:35.099Z,8.80
2023-03-21T08:41:06.264Z,8.70
2023-03-21T08:43:36.898Z,8.80
2023-03-21T08:46:08.565Z,8.90
2023-03-21T08:48:39.892Z,9.00
2023-03-21T08:51:12.262Z,8.70
2023-03-21T08:53:44.167Z,8.90
2023-03-21T08:56:15.085Z,8.80
2023-03-21T08:58:45.877Z,8.80
2023-03-21T09:01:16.738Z,8.80
2023-03-21T09:03:47.144Z,9.00
2023-03-21T09:06:19.304Z,9.20
2023-03-21T09:08:52.850Z,9.50
2023-03-21T09:11:23.948Z,9.70
2023-03-21T09:13:54.396Z,9.70
2023-03-21T09:16:25.226Z,9.70
2023-03-21T09:18:57.268Z,9.80
2023-03-21T09:21:29.978Z,9.80
2023-03-21T09:24:00.828Z,9.80
2023-03-21T09:26:32.039Z,9.90
2023-03-21T09:29:06.063Z,10.20
2023-03-21T09:31:37.177Z,10.10
2023-03-21T09:34:08.337Z,10.00
2023-03-21T09:36:42.208Z,10.00
2023-03-21T09:39:13.325Z,10.40
2023-03-21T09:42:08.554Z,9.90
2023-03-21T09:44:54.395Z,10.20
2023-03-21T09:47:29.416Z,10.40
2023-03-21T09:50:14.199Z,10.50
2023-03-21T09:52:53.075Z,10.20
2023-03-21T09:55:26.778Z,9.90
2023-03-21T09:58:06.861Z,10.40
2023-03-21T10:00:42.233Z,10.50
2023-03-21T10:03:23.911Z,10.40
2023-03-21T10:05:58.811Z,10.10
2023-03-21T10:08:36.642Z,10.20
2023-03-21T10:11:14.656Z,10.40
2023-03-21T10:13:51.299Z,10.40
2023-03-21T10:16:28.587Z,10.50
2023-03-21T10:19:02.361Z,10.60
2023-03-21T10:21:58.612Z,10.40
2023-03-21T10:24:28.299Z,10.60
2023-03-21T10:26:59.349Z,10.60
2023-03-21T10:29:37.251Z,10.30
2023-03-21T10:32:11.933Z,10.40
2023-03-21T10:34:47.113Z,10.30
2023-03-21T10:37:18.557Z,10.10
2023-03-21T10:39:53.245Z,10.40
2023-03-21T10:42:27.445Z,10.50
2023-03-21T10:45:00.108Z,10.50
2023-03-21T10:47:34.843Z,10.50
2023-03-21T10:50:10.427Z,10.40
2023-03-21T10:52:47.559Z,10.40
2023-03-21T10:55:26.589Z,11.10
2023-03-21T10:58:02.883Z,11.60
2023-03-21T11:00:39.063Z,11.50
2023-03-21T11:03:23.021Z,11.40
2023-03-21T11:05:57.496Z,11.10
2023-03-21T11:08:28.614Z,10.40
2023-03-21T11:11:06.863Z,10.10
2023-03-21T11:13:41.537Z,10.00
2023-03-21T11:16:20.753Z,9.80
2023-03-21T11:18:53.555Z,9.90
2023-03-21T11:21:29.681Z,9.70
2023-03-21T11:24:00.486Z,9.70
2023-03-21T11:26:36.859Z,9.60
2023-03-21T11:29:27.534Z,9.60
2023-03-21T11:32:02.611Z,9.40
2023-03-21T11:34:47.461Z,9.40
2023-03-21T11:37:29.079Z,9.40
2023-03-21T11:40:20.077Z,9.40
2023-03-21T11:42:54.622Z,9.40
2023-03-21T11:45:27.865Z,9.60
2023-03-21T11:48:01.958Z,9.60
2023-03-21T11:50:36.461Z,9.90
2023-03-21T11:53:29.492Z,10.20
2023-03-21T11:56:17.541Z,10.30
2023-03-21T11:59:22.137Z,10.50
2023-03-21T12:02:19.092Z,10.40
2023-03-21T12:04:56.503Z,10.40
2023-03-21T12:07:49.859Z,10.10
2023-03-21T12:10:37.780Z,10.00
2023-03-21T12:13:37.198Z,9.90
2023-03-21T12:16:41.548Z,9.90
2023-03-21T12:19:30.235Z,10.10
2023-03-21T12:22:12.154Z,10.30
2023-03-21T12:24:52.314Z,10.20
2023-03-21T12:27:37.739Z,10.40
2023-03-21T12:30:33.458Z,10.40
2023-03-21T12:33:30.500Z,10.50
2023-03-21T12:36:20.478Z,10.80
2023-03-21T12:39:04.946Z,11.50
2023-03-21T12:41:42.022Z,11.70
2023-03-21T12:44:16.981Z,11.60
2023-03-21T12:46:52.999Z,11.70
2023-03-21T12:49:33.462Z,11.80
2023-03-21T12:52:08.555Z,11.80
2023-03-21T12:54:42.952Z,11.90
2023-03-21T12:57:19.937Z,11.70
2023-03-21T12:59:57.223Z,11.30
2023-03-21T13:02:33.827Z,11.60
2023-03-21T13:05:18.878Z,11.40
2023-03-21T13:07:56.472Z,11.50
2023-03-21T13:10:27.400Z,11.40
2023-03-21T13:13:14.324Z,11.50
2023-03-21T13:16:05.123Z,11.50
2023-03-21T13:18:51.810Z,11.50
2023-03-21T13:21:39.541Z,11.60
2023-03-21T13:24:27.417Z,11.50
2023-03-21T13:27:06.835Z,11.70
2023-03-21T13:29:49.818Z,11.50
2023-03-21T13:32:30.945Z,11.40
2023-03-21T13:35:05.129Z,11.40
2023-03-21T13:37:41.876Z,11.30
2023-03-21T13:40:24.521Z,11.10
2023-03-21T13:42:59.827Z,11.30
2023-03-21T13:45:34.486Z,11.10
2023-03-21T13:48:27.013Z,11.20
2023-03-21T13:51:03.304Z,11.20
2023-03-21T13:53:38.737Z,10.90
2023-03-21T13:56:24.479Z,11.10
2023-03-21T13:59:01.512Z,11.00
2023-03-21T14:01:41.770Z,11.10
2023-03-21T14:04:17.438Z,11.10
2023-03-21T14:06:55.784Z,11.00
2023-03-21T14:09:35.637Z,11.10
2023-03-21T14:12:12.704Z,11.20
2023-03-21T14:14:47.743Z,11.40
2023-03-21T14:17:26.097Z,11.40
2023-03-21T14:20:00.822Z,11.60
2023-03-21T14:22:31.824Z,11.50
2023-03-21T14:25:12.508Z,11.70
2023-03-21T14:27:47.074Z,11.70
2023-03-21T14:30:25.762Z,11.90
2023-03-21T14:32:58.981Z,12.00
2023-03-21T14:35:32.865Z,12.30
2023-03-21T14:38:06.119Z,12.10
2023-03-21T14:40:38.718Z,12.00
2023-03-21T14:43:12.814Z,11.90
2023-03-21T14:45:43.922Z,11.80
2023-03-21T14:48:16.631Z,12.20
2023-03-21T14:50:50.893Z,12.00
2023-03-21T14:53:24.306Z,11.80
2023-03-21T14:56:01.106Z,12.00
2023-03-21T14:58:32.844Z,11.90
2023-03-21T15:01:08.908Z,12.20
2023-03-21T15:03:39.688Z,12.10
2023-03-21T15:06:15.262Z,12.00
2023-03-21T15:08:57.530Z,12.00
2023-03-21T15:11:36.182Z,11.80
2023-03-21T15:14:11.040Z,11.80
2023-03-21T15:16:42.105Z,11.80
2023-03-21T15:19:20.860Z,11.50
2023-03-21T15:21:57.888Z,11.60
2023-03-21T15:24:31.598Z,11.60
2023-03-21T15:27:07.503Z,11.50
2023-03-21T15:29:38.221Z,11.40
2023-03-21T15:32:16.498Z,11.40
2023-03-21T15:34:47.475Z,11.20
2023-03-21T15:37:23.786Z,11.10
2023-03-21T15:39:55.568Z,10.90
2023-03-21T15:42:31.203Z,11.00
2023-03-21T15:45:10.080Z,10.90
2023-03-21T15:47:54.928Z,10.80
2023-03-21T15:50:35.606Z,10.80
2023-03-21T15:53:13.217Z,10.80
2023-03-21T15:55:50.169Z,10.80
2023-03-21T15:58:26.548Z,10.70
2023-03-21T16:01:03.110Z,10.80
2023-03-21T16:03:38.276Z,10.70
2023-03-21T16:06:19.584Z,10.80
2023-03-21T16:08:53.038Z,10.90
2023-03-21T16:11:28.581Z,10.50
2023-03-21T16:14:00.761Z,10.60
2023-03-21T16:16:32.620Z,10.40
2023-03-21T16:19:04.357Z,10.50
2023-03-21T16:21:38.376Z,10.50
2023-03-21T16:24:11.547Z,10.50
2023-03-21T16:26:47.727Z,10.40
2023-03-21T16:29:21.401Z,10.40
2023-03-21T16:31:51.938Z,10.40
2023-03-21T16:34:23.257Z,10.40
2023-03-21T16:36:53.668Z,10.40
2023-03-21T16:39:27.092Z,10.40
2023-03-21T16:41:58.278Z,10.40
2023-03-21T16:44:30.590Z,10.40
2023-03-21T16:47:02.462Z,10.30
2023-03-21T16:49:33.467Z,10.20
2023-03-21T16:52:04.351Z,10.20
2023-03-21T16:54:35.103Z,10.20
2023-03-21T16:57:08.068Z,10.10
2023-03-21T16:59:40.952Z,10.10
2023-03-21T17:02:16.524Z,10.10
2023-03-21T17:04:47.540Z,10.10
2023-03-21T17:07:18.199Z,10.10
2023-03-21T17:09:49.057Z,10.00
2023-03-21T17:12:19.453Z,9.90
2023-03-21T17:14:51.712Z,9.80
2023-03-21T17:17:22.472Z,9.80
2023-03-21T17:19:53.406Z,9.80
2023-03-21T17:22:24.506Z,9.80
2023-03-21T17:24:55.494Z,9.80
2023-03-21T17:27:25.960Z,9.80
2023-03-21T17:29:58.841Z,9.80
2023-03-21T17:32:29.659Z,9.80
2023-03-21T17:35:00.677Z,9.70
2023-03-21T17:37:31.385Z,9.60
2023-03-21T17:40:02.461Z,9.50
2023-03-21T17:42:33.180Z,9.50
2023-03-21T17:45:06.251Z,9.50
2023-03-21T17:47:38.300Z,9.50
2023-03-21T17:50:18.674Z,9.50
2023-03-21T17:52:50.721Z,9.60
2023-03-21T17:55:22.633Z,9.60
2023-03-21T17:57:53.396Z,9.60
2023-03-21T18:00:27.958Z,9.60
2023-03-21T18:02:59.219Z,9.60
2023-03-21T18:05:30.341Z,9.50
2023-03-21T18:08:10.236Z,9.50
2023-03-21T18:10:43.264Z,9.50
2023-03-21T18:13:14.481Z,9.50
2023-03-21T18:15:48.304Z,9.50
2023-03-21T18:18:19.746Z,9.50
2023-03-21T18:20:53.807Z,9.40
2023-03-21T18:23:25.178Z,9.40
2023-03-21T18:25:56.380Z,9.40
2023-03-21T18:28:27.889Z,9.40
2023-03-21T18:31:10.312Z,9.30
2023-03-21T18:33:45.387Z,9.30
2023-03-21T18:36:24.732Z,9.30
2023-03-21T18:38:57.625Z,9.30
2023-03-21T18:41:29.456Z,9.30
2023-03-21T18:44:05.284Z,9.30
2023-03-21T18:46:48.234Z,9.30
2023-03-21T18:52:10.675Z,9.30
2023-03-21T18:54:43.313Z,9.30
2023-03-21T18:57:35.047Z,9.20
2023-03-21T19:00:11.110Z,9.20
2023-03-21T19:02:47.876Z,9.20
2023-03-21T19:05:22.936Z,9.20
2023-03-21T19:07:54.629Z,9.10
2023-03-21T19:10:26.058Z,9.10
2023-03-21T19:12:57.884Z,9.10
2023-03-21T19:15:28.603Z,9.10
2023-03-21T19:20:58.674Z,9.00
2023-03-21T19:23:40.895Z,9.00
2023-03-21T19:26:20.396Z,9.00
2023-03-21T19:28:51.723Z,9.00
2023-03-21T19:31:24.283Z,8.90
2023-03-21T19:33:57.318Z,8.90
2023-03-21T19:36:28.531Z,8.90
2023-03-21T19:38:59.548Z,8.80
2023-03-21T19:41:31.452Z,8.90
2023-03-21T19:44:02.761Z,8.90
2023-03-21T19:46:33.564Z,8.80
2023-03-21T19:49:06.714Z,8.80
2023-03-21T19:51:37.686Z,8.80
2023-03-21T19:54:09.648Z,8.70
2023-03-21T19:56:47.064Z,8.70
2023-03-21T19:59:20.035Z,8.60
2023-03-21T20:01:56.411Z,8.50
2023-03-21T20:04:31.264Z,8.40
2023-03-21T20:07:01.950Z,8.30
2023-03-21T20:09:52.501Z,8.20
2023-03-21T20:12:23.918Z,8.10
2023-03-21T20:15:07.017Z,8.00
2023-03-21T20:17:42.445Z,8.00
2023-03-21T20:20:18.384Z,8.10
2023-03-21T20:23:06.194Z,8.10
2023-03-21T20:25:42.475Z,8.20
2023-03-21T20:28:16.828Z,8.20
2023-03-21T20:30:57.180Z,8.30
2023-03-21T20:33:29.407Z,8.40
2023-03-21T20:36:38.277Z,8.40
2023-03-21T20:38:56.408Z,8.40
2023-03-21T20:41:27.428Z,8.40
2023-03-21T20:44:41.770Z,8.40
2023-03-21T20:46:51.439Z,8.40
2023-03-21T20:49:23.350Z,8.40
2023-03-21T20:54:47.762Z,8.50
2023-03-21T20:57:18.893Z,8.50
2023-03-21T20:59:50.233Z,8.50
2023-03-21T21:02:21.380Z,8.50
2023-03-21T21:05:23.808Z,8.50
2023-03-21T21:07:46.217Z,8.50
2023-03-21T21:10:19.088Z,8.50
2023-03-21T21:12:50.011Z,8.50
2023-03-21T21:15:21.290Z,8.50
2023-03-21T21:18:06.672Z,8.40
2023-03-21T21:20:39.102Z,8.40
2023-03-21T21:23:13.543Z,8.40
2023-03-21T21:25:44.515Z,8.40
2023-03-21T21:28:15.356Z,8.30
2023-03-21T21:30:46.039Z,8.30
2023-03-21T21:33:18.082Z,8.30
2023-03-21T21:35:48.944Z,8.30
2023-03-21T21:38:21.903Z,8.30
2023-03-21T21:40:53.312Z,8.40
2023-03-21T21:43:24.316Z,8.40
2023-03-21T21:45:55.569Z,8.40
2023-03-21T21:48:27.195Z,8.40
2023-03-21T21:50:57.710Z,8.40
2023-03-21T21:53:33.761Z,8.40
2023-03-21T21:56:06.470Z,8.40
2023-03-21T21:58:38.963Z,8.40
2023-03-21T22:01:09.696Z,8.30
2023-03-21T22:03:45.924Z,8.30
2023-03-21T22:06:16.770Z,8.30
2023-03-21T22:08:52.115Z,8.30
2023-03-21T22:11:22.580Z,8.30
2023-03-21T22:13:53.564Z,8.30
2023-03-21T22:16:24.204Z,8.40
2023-03-21T22:18:55.141Z,8.40
2023-03-21T22:21:25.624Z,8.40
2023-03-21T22:23:57.976Z,8.40
2023-03-21T22:26:28.574Z,8.40
2023-03-21T22:29:00.082Z,8.40
2023-03-21T22:31:30.577Z,8.40
2023-03-21T22:34:01.487Z,8.30
2023-03-21T22:36:32.025Z,8.40
2023-03-21T22:39:04.401Z,8.40
2023-03-21T22:41:34.840Z,8.40
2023-03-21T22:44:05.958Z,8.40
2023-03-21T22:46:36.444Z,8.40
2023-03-21T22:49:07.551Z,8.30
2023-03-21T22:51:38.161Z,8.30
2023-03-21T22:54:10.799Z,8.30
2023-03-21T22:56:41.604Z,8.30
2023-03-21T22:59:12.434Z,8.20
2023-03-21T23:01:42.863Z,8.30
2023-03-21T23:04:13.937Z,8.30
2023-03-21T23:06:45.079Z,8.30
2023-03-21T23:09:18.289Z,8.20
2023-03-21T23:11:49.790Z,8.30
2023-03-21T23:14:21.600Z,8.30
2023-03-21T23:16:54.985Z,8.30
2023-03-21T23:19:27.653Z,8.30
2023-03-21T23:21:58.736Z,8.30
2023-03-21T23:24:31.142Z,8.30
2023-03-21T23:27:01.725Z,8.30
2023-03-21T23:29:32.631Z,8.20
2023-03-21T23:32:03.112Z,8.20
2023-03-21T23:34:34.025Z,8.20
2023-03-21T23:37:04.513Z,8.20
2023-03-21T23:39:36.897Z,8.20
2023-03-21T23:42:07.823Z,8.20
2023-03-21T23:44:38.703Z,8.20
2023-03-21T23:47:09.137Z,8.20
2023-03-21T23:49:40.941Z,8.20
2023-03-21T23:52:11.455Z,8.20
2023-03-21T23:54:43.909Z,8.20
2023-03-21T23:57:14.248Z,8.20
2023-03-21T23:59:46.936Z,8.20
